createdAt,value
2023-05-15T00:01:29.183Z,65.70
2023-05-15T00:06:31.319Z,65.30
2023-05-15T00:11:34.949Z,65.60
2023-05-15T00:16:37.167Z,65.90
2023-05-15T00:21:39.390Z,65.80
2023-05-15T00:26:42.998Z,65.80
2023-05-15T00:31:45.333Z,66.40
2023-05-15T00:36:48.448Z,66.10
2023-05-15T00:41:56.112Z,67.60
2023-05-15T00:46:59.549Z,67.90
2023-05-15T00:52:02.144Z,67.30
2023-05-15T00:57:08.429Z,67.50
2023-05-15T01:02:18.065Z,68.00
2023-05-15T01:07:20.263Z,67.60
2023-05-15T01:12:26.594Z,67.80
2023-05-15T01:17:28.819Z,68.40
2023-05-15T01:22:46.961Z,67.70
2023-05-15T01:27:52.536Z,69.70
2023-05-15T01:33:08.906Z,68.50
2023-05-15T01:38:17.059Z,69.10
2023-05-15T01:43:28.220Z,68.60
2023-05-15T01:48:33.338Z,69.20
2023-05-15T01:53:35.993Z,68.80
2023-05-15T01:58:41.187Z,68.50
2023-05-15T02:03:45.303Z,68.90
2023-05-15T02:08:49.480Z,68.90
2023-05-15T02:13:54.969Z,68.80
2023-05-15T02:18:57.191Z,69.20
2023-05-15T02:23:59.381Z,69.20
2023-05-15T02:29:16.140Z,69.40
2023-05-15T02:34:27.108Z,70.40
2023-05-15T02:39:30.801Z,69.80
2023-05-15T02:44:37.225Z,69.40
2023-05-15T02:49:39.873Z,70.00
2023-05-15T02:54:42.214Z,69.50
2023-05-15T02:59:46.075Z,69.30
2023-05-15T03:04:48.266Z,69.60
2023-05-15T03:09:50.446Z,69.20
2023-05-15T03:14:53.994Z,69.30
2023-05-15T03:19:57.963Z,69.60
2023-05-15T03:25:00.381Z,69.80
2023-05-15T03:30:04.608Z,69.60
2023-05-15T03:35:07.265Z,69.90
2023-05-15T03:40:10.006Z,69.80
2023-05-15T03:45:13.688Z,69.40
2023-05-15T03:50:16.264Z,69.70
2023-05-15T03:55:18.574Z,69.70
2023-05-15T04:00:22.300Z,69.90
2023-05-15T04:05:24.736Z,70.10
2023-05-15T04:10:27.440Z,69.80
2023-05-15T04:15:31.196Z,70.00
2023-05-15T04:20:33.446Z,70.60
2023-05-15T04:25:36.606Z,70.60
2023-05-15T04:30:40.466Z,70.60
2023-05-15T04:35:42.802Z,70.60
2023-05-15T04:40:45.037Z,70.70
2023-05-15T04:45:48.819Z,70.60
2023-05-15T04:50:50.971Z,71.00
2023-05-15T04:55:53.252Z,70.90
2023-05-15T05:00:56.962Z,70.80
2023-05-15T05:05:59.133Z,71.50
2023-05-15T05:11:01.484Z,71.00
2023-05-15T05:16:05.844Z,71.00
2023-05-15T05:21:08.068Z,72.10
2023-05-15T05:26:10.376Z,71.30
2023-05-15T05:31:14.052Z,71.60
2023-05-15T05:36:18.734Z,72.10
2023-05-15T05:41:20.842Z,72.90
2023-05-15T05:46:24.559Z,72.00
2023-05-15T05:51:30.287Z,71.80
2023-05-15T05:56:32.556Z,71.50
2023-05-15T06:01:36.716Z,71.10
2023-05-15T06:06:38.963Z,71.20
2023-05-15T06:11:41.158Z,71.10
2023-05-15T06:16:44.756Z,71.00
2023-05-15T06:21:46.978Z,70.90
2023-05-15T06:26:50.408Z,70.40
2023-05-15T06:31:55.018Z,70.30
2023-05-15T06:36:57.440Z,70.30
2023-05-15T06:41:59.557Z,70.30
2023-05-15T06:47:03.385Z,70.10
2023-05-15T06:52:06.596Z,70.50
2023-05-15T06:57:08.704Z,70.60
2023-05-15T07:02:12.543Z,70.70
2023-05-15T07:07:14.770Z,70.70
2023-05-15T07:12:16.997Z,70.50
2023-05-15T07:17:20.824Z,70.60
2023-05-15T07:22:23.138Z,70.50
2023-05-15T07:27:25.458Z,70.20
2023-05-15T07:32:29.157Z,70.40
2023-05-15T07:37:31.526Z,70.80
2023-05-15T07:42:34.003Z,71.10
2023-05-15T07:47:37.705Z,71.40
2023-05-15T07:52:40.138Z,71.60
2023-05-15T07:57:42.338Z,71.80
2023-05-15T08:02:46.050Z,72.20
2023-05-15T08:07:48.709Z,71.70
2023-05-15T08:12:51.140Z,71.60
2023-05-15T08:17:54.858Z,71.80
2023-05-15T08:22:57.052Z,71.80
2023-05-15T08:27:59.268Z,71.50
2023-05-15T08:33:02.982Z,72.20
2023-05-15T08:38:05.235Z,70.90
2023-05-15T08:43:12.631Z,70.60
2023-05-15T08:48:18.561Z,70.90
2023-05-15T08:53:23.193Z,71.00
2023-05-15T08:58:26.980Z,71.00
2023-05-15T09:03:30.811Z,71.00
2023-05-15T09:08:34.071Z,71.60
2023-05-15T09:13:36.332Z,73.80
2023-05-15T09:18:41.974Z,73.90
2023-05-15T09:23:44.238Z,70.30
2023-05-15T09:28:46.786Z,68.20
2023-05-15T09:34:00.169Z,64.60
2023-05-15T09:39:03.011Z,59.50
2023-05-15T09:44:05.507Z,59.30
2023-05-15T09:49:09.985Z,57.50
2023-05-15T09:54:15.494Z,55.10
2023-05-15T09:59:19.816Z,54.20
2023-05-15T10:04:23.484Z,53.50
2023-05-15T10:09:30.767Z,51.90
2023-05-15T10:14:33.179Z,50.00
2023-05-15T10:19:44.076Z,50.90
2023-05-15T10:25:00.813Z,50.20
2023-05-15T10:30:04.056Z,48.60
2023-05-15T10:35:11.013Z,48.00
2023-05-15T10:40:15.291Z,47.20
2023-05-15T10:45:17.597Z,46.00
2023-05-15T10:50:21.507Z,46.00
2023-05-15T10:55:24.028Z,45.50
2023-05-15T11:00:28.909Z,45.70
2023-05-15T11:06:08.013Z,45.00
2023-05-15T11:11:30.249Z,44.00
2023-05-15T11:16:58.154Z,44.50
2023-05-15T11:22:03.802Z,43.00
2023-05-15T11:27:06.121Z,42.80
2023-05-15T11:32:32.145Z,43.30
2023-05-15T11:37:38.320Z,41.80
2023-05-15T11:42:58.655Z,42.00
2023-05-15T11:48:02.711Z,41.50
2023-05-15T11:53:08.717Z,41.80
2023-05-15T11:58:15.272Z,41.10
2023-05-15T12:03:19.255Z,40.40
2023-05-15T12:08:23.210Z,40.40
2023-05-15T12:13:25.480Z,40.50
2023-05-15T12:18:27.847Z,40.70
2023-05-15T12:23:33.042Z,40.40
2023-05-15T12:28:36.208Z,40.70
2023-05-15T12:33:39.204Z,41.00
2023-05-15T12:38:42.910Z,41.30
2023-05-15T12:43:45.133Z,41.40
2023-05-15T12:48:48.447Z,41.80
2023-05-15T12:53:54.322Z,42.10
2023-05-15T12:58:56.605Z,42.10
2023-05-15T13:03:59.275Z,42.20
2023-05-15T13:09:03.080Z,42.30
2023-05-15T13:14:09.679Z,42.40
2023-05-15T13:19:11.719Z,42.30
2023-05-15T13:24:15.822Z,43.40
2023-05-15T13:29:18.727Z,42.60
2023-05-15T13:34:20.941Z,42.80
2023-05-15T13:39:24.591Z,43.20
2023-05-15T13:44:26.818Z,44.50
2023-05-15T13:49:29.076Z,43.60
2023-05-15T13:54:33.299Z,43.70
2023-05-15T13:59:35.504Z,44.00
2023-05-15T14:04:37.765Z,44.10
2023-05-15T14:09:41.462Z,44.30
2023-05-15T14:14:46.842Z,43.80
2023-05-15T14:19:49.180Z,43.90
2023-05-15T14:24:53.044Z,44.30
2023-05-15T14:29:55.279Z,44.60
2023-05-15T14:34:57.438Z,45.00
2023-05-15T14:40:01.040Z,44.80
2023-05-15T14:45:03.356Z,45.00
2023-05-15T14:50:06.258Z,45.20
2023-05-15T14:55:10.438Z,45.30
2023-05-15T15:00:14.659Z,45.30
2023-05-15T15:05:16.939Z,45.20
2023-05-15T15:10:20.675Z,45.20
2023-05-15T15:15:23.458Z,45.30
2023-05-15T15:20:27.982Z,45.40
2023-05-15T15:25:33.179Z,45.50
2023-05-15T15:30:35.439Z,45.70
2023-05-15T15:35:37.716Z,46.20
2023-05-15T15:40:41.454Z,45.50
2023-05-15T15:45:43.751Z,45.70
2023-05-15T15:50:46.029Z,46.90
2023-05-15T15:55:49.892Z,46.80
2023-05-15T16:00:52.310Z,46.90
2023-05-15T16:05:54.547Z,47.00
2023-05-15T16:10:58.236Z,47.20
2023-05-15T16:16:00.415Z,47.30
2023-05-15T16:21:02.611Z,47.50
2023-05-15T16:26:07.645Z,47.90
2023-05-15T16:31:10.092Z,48.00
2023-05-15T16:36:12.326Z,47.90
2023-05-15T16:41:16.135Z,48.10
2023-05-15T16:46:18.874Z,48.30
2023-05-15T16:51:21.121Z,48.50
2023-05-15T16:56:24.870Z,48.80
2023-05-15T17:01:27.278Z,49.00
2023-05-15T17:06:29.754Z,49.00
2023-05-15T17:11:33.374Z,49.90
2023-05-15T17:16:35.715Z,49.30
2023-05-15T17:21:37.922Z,49.40
2023-05-15T17:26:41.759Z,49.70
2023-05-15T17:31:43.961Z,50.00
2023-05-15T17:36:46.134Z,50.10
2023-05-15T17:41:49.803Z,50.50
2023-05-15T17:46:52.012Z,50.90
2023-05-15T17:51:54.697Z,51.00
2023-05-15T17:56:58.259Z,51.20
2023-05-15T18:02:01.183Z,51.50
2023-05-15T18:07:03.594Z,51.80
2023-05-15T18:12:08.592Z,52.10
2023-05-15T18:17:10.806Z,52.50
2023-05-15T18:22:13.114Z,52.60
2023-05-15T18:27:16.882Z,52.90
2023-05-15T18:32:20.232Z,53.30
2023-05-15T18:37:22.941Z,53.40
2023-05-15T18:42:28.043Z,53.60
2023-05-15T18:47:30.558Z,54.00
2023-05-15T18:52:33.761Z,53.80
2023-05-15T18:57:37.712Z,53.90
2023-05-15T19:02:40.159Z,54.30
2023-05-15T19:07:42.475Z,54.30
2023-05-15T19:12:48.837Z,54.70
2023-05-15T19:17:51.117Z,55.10
2023-05-15T19:22:53.303Z,54.90
2023-05-15T19:27:56.909Z,54.80
2023-05-15T19:32:59.237Z,55.40
2023-05-15T19:38:01.436Z,55.60
2023-05-15T19:43:08.403Z,55.90
2023-05-15T19:48:13.673Z,56.60
2023-05-15T19:53:17.415Z,56.50
2023-05-15T19:58:23.728Z,56.60
2023-05-15T20:03:29.612Z,57.20
2023-05-15T20:08:34.706Z,57.50
2023-05-15T20:13:40.439Z,57.70
2023-05-15T20:18:43.920Z,58.10
2023-05-15T20:23:47.943Z,58.10
2023-05-15T20:28:54.007Z,58.60
2023-05-15T20:33:57.611Z,58.90
2023-05-15T20:39:00.132Z,58.90
2023-05-15T20:44:06.625Z,59.30
2023-05-15T20:49:12.100Z,59.50
2023-05-15T20:54:16.510Z,59.70
2023-05-15T20:59:20.237Z,59.90
2023-05-15T21:04:22.528Z,59.90
2023-05-15T21:09:25.380Z,60.00
2023-05-15T21:14:28.934Z,60.20
2023-05-15T21:19:31.104Z,60.80
2023-05-15T21:24:35.124Z,60.80
2023-05-15T21:29:39.113Z,61.40
2023-05-15T21:34:41.233Z,61.60
2023-05-15T21:39:43.375Z,61.60
2023-05-15T21:44:46.901Z,62.00
2023-05-15T21:49:49.058Z,62.50
2023-05-15T21:54:51.280Z,62.30
2023-05-15T21:59:54.979Z,62.20
2023-05-15T22:04:57.107Z,62.50
2023-05-15T22:09:59.332Z,62.50
2023-05-15T22:15:02.999Z,62.60
2023-05-15T22:20:05.809Z,62.90
2023-05-15T22:25:08.866Z,62.80
2023-05-15T22:30:13.086Z,63.20
2023-05-15T22:35:15.286Z,63.40
2023-05-15T22:40:17.544Z,63.30
2023-05-15T22:45:21.117Z,63.30
2023-05-15T22:50:23.247Z,63.40
2023-05-15T22:55:25.490Z,63.10
2023-05-15T23:00:29.349Z,63.10
2023-05-15T23:05:31.985Z,63.20
2023-05-15T23:10:34.268Z,63.00
2023-05-15T23:15:37.807Z,63.00
2023-05-15T23:20:40.099Z,63.30
2023-05-15T23:25:42.256Z,63.30
2023-05-15T23:30:45.930Z,63.10
2023-05-15T23:35:51.204Z,63.50
2023-05-15T23:41:27.421Z,63.30
2023-05-15T23:46:42.493Z,64.70
2023-05-15T23:52:12.405Z,63.60
2023-05-15T23:57:23.895Z,64.90
